Time;durP1;ratioP1;P1;durP2;ratioP2;P2;SDS_P1;SDS_P2;PMS_P1;PMS_P2;Temp;Humidity;BMP_temperature;BMP_pressure;BME280_temperature;BME280_humidity;BME280_pressure;Samples;Min_cycle;Max_cycle;Signal;HPM_P1;HPM_P2
2024/01/04 00:00:06;;;;;;;3.30;1.80;;;9.30;99.90;;;;;;6138730;23;20032;-38
2024/01/04 00:02:31;;;;;;;4.57;1.80;;;9.30;99.90;;;;;;6138455;23;20064;-39
2024/01/04 00:04:57;;;;;;;4.32;2.00;;;9.30;99.90;;;;;;6140171;23;20014;-40
2024/01/04 00:07:23;;;;;;;3.10;2.00;;;9.30;99.90;;;;;;6138398;23;20008;-38
2024/01/04 00:09:51;;;;;;;4.18;2.17;;;9.30;99.90;;;;;;6139367;23;20048;-38
2024/01/04 00:12:17;;;;;;;3.67;2.22;;;9.40;99.90;;;;;;6139260;23;20036;-38
2024/01/04 00:14:42;;;;;;;4.75;2.30;;;9.40;99.90;;;;;;6137276;23;20041;-39
2024/01/04 00:17:08;;;;;;;4.05;2.42;;;9.40;99.90;;;;;;6137326;23;20012;-39
2024/01/04 00:19:33;;;;;;;4.28;2.85;;;9.40;99.90;;;;;;6138539;23;20356;-38
2024/01/04 00:21:59;;;;;;;4.38;2.00;;;9.40;99.90;;;;;;6137618;23;20524;-37
2024/01/04 00:24:25;;;;;;;3.80;2.38;;;9.40;99.90;;;;;;6138696;23;20014;-39
2024/01/04 00:26:50;;;;;;;8.07;2.90;;;9.50;99.90;;;;;;6138298;23;20037;-39
2024/01/04 00:29:16;;;;;;;5.80;2.40;;;9.50;99.90;;;;;;6137814;23;20013;-38
2024/01/04 00:31:41;;;;;;;2.63;2.17;;;9.40;99.90;;;;;;6138547;23;20013;-37
2024/01/04 00:34:08;;;;;;;5.78;2.30;;;9.50;99.90;;;;;;6138185;23;20547;-38
2024/01/04 00:36:34;;;;;;;2.90;2.08;;;9.40;99.90;;;;;;6138912;23;20009;-45
2024/01/04 00:38:59;;;;;;;3.67;1.75;;;9.40;99.90;;;;;;6139305;23;20014;-39
2024/01/04 00:41:25;;;;;;;3.20;1.60;;;9.40;99.90;;;;;;6139437;23;20056;-42
2024/01/04 00:43:51;;;;;;;2.97;1.73;;;9.40;99.90;;;;;;6137977;23;20006;-38
2024/01/04 00:46:16;;;;;;;5.05;1.70;;;9.40;99.90;;;;;;6138642;23;20009;-37
2024/01/04 00:48:42;;;;;;;3.50;1.40;;;9.40;99.90;;;;;;6139389;23;20016;-38
2024/01/04 00:51:07;;;;;;;5.85;1.85;;;9.40;99.90;;;;;;6138334;23;20422;-38
2024/01/04 00:53:36;;;;;;;3.00;1.70;;;9.40;99.90;;;;;;6138989;23;20010;-37
2024/01/04 00:56:01;;;;;;;2.95;1.70;;;9.40;99.90;;;;;;6138938;23;20069;-37
2024/01/04 00:58:27;;;;;;;1.95;1.73;;;9.40;99.90;;;;;;6137349;23;20039;-37
2024/01/04 01:00:52;;;;;;;2.22;1.48;;;9.40;99.90;;;;;;6138862;23;20010;-37
2024/01/04 01:03:18;;;;;;;2.22;1.50;;;9.40;99.90;;;;;;6138962;23;20096;-38
2024/01/04 01:05:43;;;;;;;3.00;1.60;;;9.40;99.90;;;;;;6140060;23;20785;-38
2024/01/04 01:08:10;;;;;;;2.90;1.58;;;9.40;99.90;;;;;;6139594;23;20594;-37
2024/01/04 01:10:35;;;;;;;4.00;1.65;;;9.40;99.90;;;;;;6139586;23;20001;-38
2024/01/04 01:13:01;;;;;;;3.53;2.17;;;9.40;99.90;;;;;;6140728;23;20020;-37
2024/01/04 01:15:27;;;;;;;5.30;1.80;;;9.40;99.90;;;;;;6139235;23;20464;-37
2024/01/04 01:17:53;;;;;;;4.55;1.83;;;9.40;99.90;;;;;;6139641;23;20349;-37
2024/01/04 01:20:18;;;;;;;5.05;2.10;;;9.40;99.90;;;;;;6140134;23;20025;-37
2024/01/04 01:22:44;;;;;;;2.72;1.92;;;9.40;99.90;;;;;;6141848;23;20017;-37
2024/01/04 01:25:09;;;;;;;4.68;1.85;;;9.40;99.90;;;;;;6140317;23;20005;-39
2024/01/04 01:27:35;;;;;;;2.53;1.60;;;9.40;99.90;;;;;;6141051;23;20022;-37
2024/01/04 01:30:00;;;;;;;3.53;1.70;;;9.40;99.90;;;;;;6140769;23;20088;-37
2024/01/04 01:32:26;;;;;;;2.72;1.70;;;9.40;99.90;;;;;;6138411;23;20009;-38
2024/01/04 01:34:54;;;;;;;3.63;1.80;;;9.40;99.90;;;;;;6140241;23;20539;-37
2024/01/04 01:37:19;;;;;;;4.20;1.50;;;9.40;99.90;;;;;;6139357;23;20109;-37
2024/01/04 01:39:45;;;;;;;3.28;1.80;;;9.40;99.90;;;;;;6139335;23;20092;-37
2024/01/04 01:42:10;;;;;;;3.42;1.10;;;9.40;99.90;;;;;;6138919;23;20006;-37
2024/01/04 01:44:36;;;;;;;4.22;1.60;;;9.40;99.90;;;;;;6139645;23;20191;-37
2024/01/04 01:47:02;;;;;;;3.38;1.23;;;9.40;99.90;;;;;;6139461;23;20010;-37
2024/01/04 01:49:27;;;;;;;1.45;1.00;;;9.40;99.90;;;;;;6138345;23;20017;-37
2024/01/04 01:51:53;;;;;;;4.53;1.77;;;9.40;99.90;;;;;;6139620;23;20902;-36
2024/01/04 01:54:19;;;;;;;4.40;1.95;;;9.40;99.90;;;;;;6137128;23;20013;-37
2024/01/04 01:56:45;;;;;;;2.55;1.20;;;9.40;99.90;;;;;;6140412;23;20005;-36
2024/01/04 01:59:12;;;;;;;2.65;1.42;;;9.40;99.90;;;;;;6139733;23;20009;-37
2024/01/04 02:01:37;;;;;;;3.58;1.40;;;9.40;99.90;;;;;;6138887;23;20006;-37
2024/01/04 02:04:03;;;;;;;5.82;1.33;;;9.40;99.90;;;;;;6137926;23;20404;-39
2024/01/04 02:06:29;;;;;;;4.60;1.50;;;9.50;99.90;;;;;;6139336;23;20009;-37
2024/01/04 02:08:55;;;;;;;4.70;1.42;;;9.50;99.90;;;;;;6138744;23;20018;-37
2024/01/04 02:11:22;;;;;;;3.25;1.40;;;9.40;99.90;;;;;;6139409;23;20100;-37
2024/01/04 02:13:48;;;;;;;3.65;1.35;;;9.40;99.90;;;;;;6139276;23;20096;-37
2024/01/04 02:16:14;;;;;;;3.35;1.50;;;9.40;99.90;;;;;;6140490;23;20010;-37
2024/01/04 02:18:40;;;;;;;2.17;1.60;;;9.40;99.90;;;;;;6140708;23;20005;-39
2024/01/04 02:21:06;;;;;;;3.40;1.45;;;9.30;99.90;;;;;;6140036;23;20580;-39
2024/01/04 02:23:31;;;;;;;3.67;1.60;;;9.30;99.90;;;;;;6139986;23;20031;-37
2024/01/04 02:25:57;;;;;;;5.72;1.75;;;9.30;99.90;;;;;;6140909;23;20009;-36
2024/01/04 02:28:23;;;;;;;3.40;2.00;;;9.30;99.90;;;;;;6139364;23;20574;-37
2024/01/04 02:30:48;;;;;;;3.53;1.60;;;9.20;99.90;;;;;;6140731;23;20029;-37
2024/01/04 02:33:14;;;;;;;3.08;1.63;;;9.30;99.90;;;;;;6139325;23;20091;-37
2024/01/04 02:35:39;;;;;;;5.80;2.03;;;9.30;99.90;;;;;;6139501;23;20017;-39
2024/01/04 02:38:05;;;;;;;5.60;2.40;;;9.20;99.90;;;;;;6139480;23;20029;-37
2024/01/04 02:40:31;;;;;;;3.47;1.70;;;9.20;99.90;;;;;;6138912;23;20036;-37
2024/01/04 02:42:56;;;;;;;5.75;2.67;;;9.20;99.90;;;;;;6138464;23;20424;-37
2024/01/04 02:45:22;;;;;;;3.97;2.17;;;9.30;99.90;;;;;;6139839;23;20056;-36
2024/01/04 02:47:47;;;;;;;4.88;2.00;;;9.30;99.90;;;;;;6140352;23;20096;-37
2024/01/04 02:50:14;;;;;;;6.43;2.10;;;9.20;99.90;;;;;;6139071;23;20428;-37
2024/01/04 02:52:39;;;;;;;8.65;2.40;;;9.20;99.90;;;;;;6139631;23;20006;-37
2024/01/04 02:55:05;;;;;;;5.22;2.58;;;9.20;99.90;;;;;;6139365;23;20362;-36
2024/01/04 02:57:31;;;;;;;4.85;2.30;;;9.20;99.90;;;;;;6138092;23;20404;-38
2024/01/04 02:59:57;;;;;;;5.15;2.40;;;9.20;99.90;;;;;;6139984;23;20009;-37
2024/01/04 03:02:22;;;;;;;4.70;2.20;;;9.20;99.90;;;;;;6140415;23;20052;-36
2024/01/04 03:04:48;;;;;;;4.72;2.22;;;9.20;99.90;;;;;;6140616;23;20024;-36
2024/01/04 03:07:13;;;;;;;3.25;1.90;;;9.20;99.90;;;;;;6139681;23;20020;-37
2024/01/04 03:09:39;;;;;;;4.85;2.10;;;9.20;99.90;;;;;;6139921;23;20321;-36
2024/01/04 03:12:05;;;;;;;4.80;2.25;;;9.20;99.90;;;;;;6139762;23;20009;-36
2024/01/04 03:14:33;;;;;;;5.57;2.25;;;9.20;99.90;;;;;;6139254;23;20009;-37
2024/01/04 03:16:59;;;;;;;4.22;2.10;;;9.20;99.90;;;;;;6137769;23;20116;-37
2024/01/04 03:19:24;;;;;;;3.70;2.45;;;9.20;99.90;;;;;;6138875;23;20076;-37
2024/01/04 03:21:50;;;;;;;6.38;2.85;;;9.20;99.90;;;;;;6138850;23;20006;-37
2024/01/04 03:24:15;;;;;;;5.13;2.78;;;9.20;99.90;;;;;;6137203;23;20006;-39
2024/01/04 03:26:41;;;;;;;5.03;2.40;;;9.20;99.90;;;;;;6138657;23;20742;-37
2024/01/04 03:29:07;;;;;;;2.97;2.10;;;9.20;99.90;;;;;;6138588;23;20024;-38
2024/01/04 03:31:33;;;;;;;4.93;2.20;;;9.20;99.90;;;;;;6138638;23;20017;-38
2024/01/04 03:33:58;;;;;;;3.60;2.25;;;9.20;99.90;;;;;;6138584;23;20013;-37
2024/01/04 03:36:24;;;;;;;5.20;2.63;;;9.20;99.90;;;;;;6140002;23;20006;-37
2024/01/04 03:38:49;;;;;;;4.40;2.40;;;9.20;99.90;;;;;;6138437;23;20008;-36
2024/01/04 03:41:15;;;;;;;4.43;2.03;;;9.20;99.90;;;;;;6138569;23;20013;-37
2024/01/04 03:43:41;;;;;;;2.47;1.90;;;9.20;99.90;;;;;;6138270;23;20006;-37
2024/01/04 03:46:08;;;;;;;5.57;2.30;;;9.20;99.90;;;;;;6137531;23;20009;-37
2024/01/04 03:48:34;;;;;;;3.38;2.35;;;9.20;99.90;;;;;;6139124;23;20024;-42
2024/01/04 03:51:00;;;;;;;3.55;2.10;;;9.20;99.90;;;;;;6138472;23;20006;-37
2024/01/04 03:53:26;;;;;;;4.18;2.10;;;9.20;99.90;;;;;;6137034;23;20504;-37
2024/01/04 03:55:52;;;;;;;2.15;1.38;;;9.20;99.90;;;;;;6138568;23;20103;-37
2024/01/04 03:58:17;;;;;;;3.60;1.60;;;9.20;99.90;;;;;;6137888;23;20010;-38
2024/01/04 04:00:44;;;;;;;2.45;1.70;;;9.20;99.90;;;;;;6137222;23;20190;-39
2024/01/04 04:03:09;;;;;;;3.92;1.92;;;9.20;99.90;;;;;;6137963;23;20096;-38
2024/01/04 04:05:35;;;;;;;3.10;1.75;;;9.20;99.90;;;;;;6138376;23;20465;-37
2024/01/04 04:08:01;;;;;;;2.50;1.63;;;9.10;99.90;;;;;;6137032;23;20017;-37
2024/01/04 04:10:26;;;;;;;3.70;1.80;;;9.20;99.90;;;;;;6137993;23;20743;-37
2024/01/04 04:12:52;;;;;;;3.13;1.80;;;9.10;99.90;;;;;;6139072;23;20048;-37
2024/01/04 04:15:17;;;;;;;4.70;2.05;;;9.10;99.90;;;;;;6138122;23;20064;-37
2024/01/04 04:17:43;;;;;;;3.53;1.60;;;9.10;99.90;;;;;;6138481;23;20029;-38
2024/01/04 04:20:15;;;;;;;3.40;1.70;;;9.10;99.90;;;;;;6138370;23;20001;-38
2024/01/04 04:22:40;;;;;;;2.28;1.50;;;9.10;99.90;;;;;;6138843;23;20005;-37
2024/01/04 04:25:06;;;;;;;6.13;2.03;;;9.10;99.90;;;;;;6139097;23;20114;-37
2024/01/04 04:27:31;;;;;;;3.30;1.70;;;9.10;99.90;;;;;;6137636;23;20005;-36
2024/01/04 04:29:57;;;;;;;2.15;1.52;;;9.10;99.90;;;;;;6139182;23;20009;-37
2024/01/04 04:32:22;;;;;;;2.70;1.52;;;9.10;99.90;;;;;;6138951;23;20114;-37
2024/01/04 04:34:48;;;;;;;2.38;1.50;;;9.10;99.90;;;;;;6138262;23;20018;-36
2024/01/04 04:37:14;;;;;;;3.88;1.50;;;9.10;99.90;;;;;;6139306;23;20109;-37
2024/01/04 04:39:40;;;;;;;1.75;1.33;;;9.20;99.90;;;;;;6139545;23;20844;-36
2024/01/04 04:42:06;;;;;;;1.77;1.30;;;9.20;99.90;;;;;;6139934;23;20001;-36
2024/01/04 04:44:31;;;;;;;4.00;1.40;;;9.20;99.90;;;;;;6139974;23;20016;-36
2024/01/04 04:46:57;;;;;;;2.75;1.40;;;9.20;99.90;;;;;;6139508;23;20044;-37
2024/01/04 04:49:23;;;;;;;1.83;1.25;;;9.20;99.90;;;;;;6138817;23;20528;-37
2024/01/04 04:51:49;;;;;;;4.07;1.35;;;9.20;99.90;;;;;;6140541;23;20018;-37
2024/01/04 04:54:17;;;;;;;2.15;1.38;;;9.20;99.90;;;;;;6138833;23;20857;-37
2024/01/04 04:56:43;;;;;;;3.25;1.40;;;9.20;99.90;;;;;;6139463;23;20006;-37
2024/01/04 04:59:09;;;;;;;2.85;1.40;;;9.20;99.90;;;;;;6139307;23;20092;-38
2024/01/04 05:01:35;;;;;;;2.67;1.60;;;9.20;99.90;;;;;;6140718;23;20172;-37
2024/01/04 05:04:01;;;;;;;2.10;1.55;;;9.20;99.90;;;;;;6140147;23;20326;-37
2024/01/04 05:06:26;;;;;;;2.75;1.58;;;9.20;99.90;;;;;;6141448;23;20001;-38
2024/01/04 05:08:56;;;;;;;2.85;1.52;;;9.20;99.90;;;;;;6141300;23;20013;-36
2024/01/04 05:11:22;;;;;;;3.38;2.00;;;9.20;99.90;;;;;;6139481;23;20520;-38
2024/01/04 05:13:47;;;;;;;4.97;2.15;;;9.20;99.90;;;;;;6141117;23;20016;-36
2024/01/04 05:16:14;;;;;;;2.58;1.88;;;9.10;99.90;;;;;;6141998;23;20010;-36
2024/01/04 05:18:40;;;;;;;4.57;2.20;;;9.10;99.90;;;;;;6141292;23;20009;-36
2024/01/04 05:21:06;;;;;;;3.50;1.88;;;9.10;99.90;;;;;;6140815;23;20009;-37
2024/01/04 05:23:31;;;;;;;1.95;1.40;;;9.00;99.90;;;;;;6140122;23;20037;-37
2024/01/04 05:25:57;;;;;;;3.85;1.80;;;9.00;99.90;;;;;;6140200;23;20024;-37
2024/01/04 05:28:25;;;;;;;3.40;1.83;;;9.00;99.90;;;;;;6140495;23;20020;-37
2024/01/04 05:31:02;;;;;;;1.83;1.55;;;9.00;99.90;;;;;;6140422;23;20318;-37
2024/01/04 05:33:28;;;;;;;2.75;1.20;;;9.00;99.90;;;;;;6140250;23;20455;-37
2024/01/04 05:35:54;;;;;;;1.52;1.27;;;9.00;99.90;;;;;;6139664;23;20041;-38
2024/01/04 05:38:22;;;;;;;2.53;1.30;;;9.00;99.90;;;;;;6139643;23;20728;-37
2024/01/04 05:40:51;;;;;;;1.17;1.02;;;9.00;99.90;;;;;;6140620;23;20019;-37
2024/01/04 05:43:19;;;;;;;2.28;1.00;;;9.00;99.90;;;;;;6140512;23;20020;-37
2024/01/04 05:45:48;;;;;;;2.22;1.45;;;9.00;99.90;;;;;;6140223;23;20586;-37
2024/01/04 05:48:20;;;;;;;4.68;1.38;;;9.00;99.90;;;;;;6140129;23;20064;-37
2024/01/04 05:50:49;;;;;;;1.23;1.13;;;9.00;99.90;;;;;;6140922;23;20082;-37
2024/01/04 05:53:17;;;;;;;1.80;1.42;;;9.00;99.90;;;;;;6139571;23;20381;-37
2024/01/04 05:55:42;;;;;;;1.95;1.20;;;9.00;99.90;;;;;;6141099;23;20012;-37
2024/01/04 05:58:08;;;;;;;1.65;1.48;;;9.00;99.90;;;;;;6140066;23;20009;-37
2024/01/04 06:00:34;;;;;;;1.88;1.30;;;9.00;99.90;;;;;;6138476;23;20077;-37
2024/01/04 06:02:59;;;;;;;1.90;1.30;;;9.00;99.90;;;;;;6139587;23;20784;-36
2024/01/04 06:05:26;;;;;;;2.65;1.40;;;9.00;99.90;;;;;;6139846;23;20460;-37
2024/01/04 06:07:52;;;;;;;2.03;1.38;;;9.00;99.90;;;;;;6114195;23;20066;-37
2024/01/04 06:10:18;;;;;;;1.58;1.30;;;9.00;99.90;;;;;;6139785;23;20137;-37
2024/01/04 06:12:44;;;;;;;1.75;1.50;;;9.10;99.90;;;;;;6140612;23;20012;-36
2024/01/04 06:15:10;;;;;;;2.25;1.52;;;9.00;99.90;;;;;;6137801;23;20506;-38
2024/01/04 06:17:36;;;;;;;3.42;1.80;;;9.00;99.90;;;;;;6140221;23;20149;-37
2024/01/04 06:20:02;;;;;;;1.80;1.60;;;9.00;99.90;;;;;;6139784;23;20053;-37
2024/01/04 06:22:28;;;;;;;2.10;1.38;;;9.00;99.90;;;;;;6140439;23;20021;-37
2024/01/04 06:24:53;;;;;;;3.22;2.30;;;9.00;99.90;;;;;;6139276;23;20448;-37
2024/01/04 06:27:19;;;;;;;2.10;1.70;;;9.00;99.90;;;;;;6137816;23;20013;-37
2024/01/04 06:29:45;;;;;;;2.20;1.55;;;8.90;99.90;;;;;;6141063;23;20103;-36
2024/01/04 06:32:11;;;;;;;2.55;1.70;;;8.90;99.90;;;;;;6137290;23;20425;-37
2024/01/04 06:34:37;;;;;;;2.38;1.50;;;8.90;99.90;;;;;;6138232;23;20060;-38
2024/01/04 06:37:03;;;;;;;2.60;1.50;;;8.90;99.90;;;;;;6137831;23;20001;-37
2024/01/04 06:39:29;;;;;;;2.10;1.45;;;8.90;99.90;;;;;;6139883;23;20009;-37
2024/01/04 06:41:56;;;;;;;1.55;1.35;;;8.90;99.90;;;;;;6138560;23;20692;-37
2024/01/04 06:44:22;;;;;;;1.75;1.30;;;8.90;99.90;;;;;;6139224;23;20084;-37
2024/01/04 06:46:48;;;;;;;1.60;1.30;;;8.90;99.90;;;;;;6140219;23;20784;-37
2024/01/04 06:49:13;;;;;;;1.40;1.30;;;8.90;99.90;;;;;;6138033;23;20010;-38
2024/01/04 06:51:39;;;;;;;2.00;1.50;;;8.90;99.90;;;;;;6139714;23;20044;-38
2024/01/04 06:54:05;;;;;;;1.75;1.40;;;8.90;99.90;;;;;;6139404;23;20013;-37
2024/01/04 06:56:30;;;;;;;2.45;1.50;;;8.90;99.90;;;;;;6138901;23;20354;-38
2024/01/04 06:58:56;;;;;;;1.77;1.55;;;8.90;99.90;;;;;;6140100;23;20012;-38
2024/01/04 07:01:22;;;;;;;1.30;1.20;;;8.90;99.90;;;;;;6138625;23;20443;-38
2024/01/04 07:03:49;;;;;;;1.42;1.33;;;8.90;99.90;;;;;;6137837;23;20021;-37
2024/01/04 07:06:17;;;;;;;2.13;1.52;;;8.90;99.90;;;;;;6138073;23;20005;-38
2024/01/04 07:08:43;;;;;;;1.90;1.60;;;8.90;99.90;;;;;;6140588;23;20039;-37
2024/01/04 07:11:09;;;;;;;3.08;1.55;;;8.90;99.90;;;;;;6138511;23;20709;-38
2024/01/04 07:13:35;;;;;;;2.00;1.38;;;8.90;99.90;;;;;;6139809;23;20009;-38
2024/01/04 07:16:04;;;;;;;1.98;1.40;;;8.90;99.90;;;;;;6138873;23;20479;-38
2024/01/04 07:18:30;;;;;;;2.72;1.67;;;8.90;99.90;;;;;;6139172;23;20440;-37
2024/01/04 07:20:56;;;;;;;2.08;1.50;;;8.90;99.90;;;;;;6139891;23;20092;-38
2024/01/04 07:23:21;;;;;;;1.63;1.40;;;8.90;99.90;;;;;;6138240;23;20539;-38
2024/01/04 07:25:47;;;;;;;1.83;1.30;;;8.90;99.90;;;;;;6138177;23;20049;-37
2024/01/04 07:28:12;;;;;;;1.88;1.20;;;8.90;99.90;;;;;;6138379;23;20096;-38
2024/01/04 07:30:38;;;;;;;1.58;1.45;;;8.90;99.90;;;;;;6139062;23;20109;-39
2024/01/04 07:33:04;;;;;;;1.60;1.50;;;8.90;99.90;;;;;;6138820;23;20005;-37
2024/01/04 07:35:30;;;;;;;1.58;1.25;;;8.90;99.90;;;;;;6139366;23;20006;-38
2024/01/04 07:37:57;;;;;;;2.83;1.55;;;8.90;99.90;;;;;;6138538;23;20322;-38
2024/01/04 07:40:22;;;;;;;2.38;1.50;;;8.90;99.90;;;;;;6139260;23;20612;-38
2024/01/04 07:42:48;;;;;;;1.50;1.35;;;8.90;99.90;;;;;;6139970;23;20451;-39
2024/01/04 07:45:14;;;;;;;1.50;1.40;;;8.90;99.90;;;;;;6136996;23;20029;-38
2024/01/04 07:47:40;;;;;;;2.80;1.50;;;8.90;99.90;;;;;;6139805;23;20013;-38
2024/01/04 07:50:08;;;;;;;1.20;1.10;;;8.90;99.90;;;;;;6135790;23;20017;-38
2024/01/04 07:52:34;;;;;;;2.00;1.35;;;8.90;99.90;;;;;;6137508;23;20009;-39
2024/01/04 07:55:00;;;;;;;2.42;1.25;;;8.90;99.90;;;;;;6137786;23;20201;-38
2024/01/04 07:57:25;;;;;;;1.75;1.20;;;8.90;99.90;;;;;;6138278;23;20425;-38
2024/01/04 07:59:51;;;;;;;1.13;1.00;;;9.00;99.90;;;;;;6134437;23;20675;-39
2024/01/04 08:02:17;;;;;;;1.67;1.30;;;8.90;99.90;;;;;;6138346;23;20028;-36
2024/01/04 08:04:43;;;;;;;1.83;1.40;;;8.90;99.90;;;;;;6137576;23;20341;-38
2024/01/04 08:07:08;;;;;;;1.65;1.20;;;8.90;99.90;;;;;;6136282;23;20018;-38
2024/01/04 08:09:34;;;;;;;1.33;1.20;;;8.90;99.90;;;;;;6138448;23;20037;-37
2024/01/04 08:12:01;;;;;;;1.63;1.30;;;8.90;99.90;;;;;;6138223;23;20001;-37
2024/01/04 08:14:27;;;;;;;1.30;1.20;;;8.90;99.90;;;;;;6136812;23;20056;-36
2024/01/04 08:16:52;;;;;;;1.60;1.20;;;8.90;99.90;;;;;;6138979;23;20005;-36
2024/01/04 08:19:18;;;;;;;2.05;1.23;;;8.90;99.90;;;;;;6138167;23;20526;-36
2024/01/04 08:21:44;;;;;;;1.75;1.30;;;8.90;99.90;;;;;;6137240;23;20483;-37
2024/01/04 08:24:10;;;;;;;1.48;1.27;;;8.90;99.90;;;;;;6135784;23;20013;-37
2024/01/04 08:26:41;;;;;;;1.40;1.20;;;8.90;99.90;;;;;;6137892;23;20009;-37
2024/01/04 08:29:07;;;;;;;2.40;1.30;;;8.90;99.90;;;;;;6139544;23;20048;-37
2024/01/04 08:31:33;;;;;;;1.30;1.20;;;8.90;99.90;;;;;;6138187;23;20002;-44
2024/01/04 08:33:59;;;;;;;1.50;1.40;;;8.90;99.90;;;;;;6137751;23;20033;-38
2024/01/04 08:36:25;;;;;;;1.50;1.20;;;9.00;99.90;;;;;;6139064;23;20006;-37
2024/01/04 08:38:51;;;;;;;1.40;1.30;;;9.00;99.90;;;;;;6139405;23;20008;-37
2024/01/04 08:41:16;;;;;;;1.58;1.38;;;9.00;99.90;;;;;;6137153;23;20055;-37
2024/01/04 08:43:42;;;;;;;1.73;1.45;;;9.00;99.90;;;;;;6138658;23;20414;-37
2024/01/04 08:46:08;;;;;;;1.90;1.20;;;9.00;99.90;;;;;;6138587;23;20341;-37
2024/01/04 08:48:34;;;;;;;4.05;1.50;;;9.00;99.90;;;;;;6138725;23;20594;-37
2024/01/04 08:50:59;;;;;;;3.38;1.98;;;9.00;99.90;;;;;;6138017;23;20012;-37
2024/01/04 08:53:25;;;;;;;1.98;1.40;;;9.00;99.90;;;;;;6139146;23;20117;-37
2024/01/04 08:55:50;;;;;;;2.17;1.55;;;9.00;99.90;;;;;;6136016;23;20636;-38
2024/01/04 08:58:16;;;;;;;1.98;1.25;;;9.00;99.90;;;;;;6137998;23;20009;-38
2024/01/04 09:00:45;;;;;;;1.48;1.38;;;9.00;99.90;;;;;;6135832;23;20005;-38
2024/01/04 09:03:11;;;;;;;3.20;1.50;;;9.00;99.90;;;;;;6132117;23;20021;-38
2024/01/04 09:05:36;;;;;;;1.80;1.42;;;9.10;99.90;;;;;;6138408;23;20009;-38
2024/01/04 09:08:04;;;;;;;1.20;1.10;;;9.10;99.90;;;;;;6139765;23;20037;-38
2024/01/04 09:10:31;;;;;;;1.90;1.27;;;9.10;99.90;;;;;;6138139;23;20013;-38
2024/01/04 09:12:56;;;;;;;1.60;1.50;;;9.20;99.90;;;;;;6138605;23;20010;-37
2024/01/04 09:15:22;;;;;;;1.80;1.50;;;9.10;99.90;;;;;;6138439;23;20634;-37
2024/01/04 09:17:48;;;;;;;1.63;1.52;;;9.20;99.90;;;;;;6136617;23;20034;-37
2024/01/04 09:20:14;;;;;;;1.70;1.50;;;9.20;99.90;;;;;;6137781;23;20005;-37
2024/01/04 09:22:39;;;;;;;1.90;1.70;;;9.20;99.90;;;;;;6139323;23;20006;-37
2024/01/04 09:25:07;;;;;;;2.00;1.80;;;9.20;99.90;;;;;;6138206;23;20132;-37
2024/01/04 09:27:32;;;;;;;2.75;2.08;;;9.20;99.90;;;;;;6139644;23;20025;-37
2024/01/04 09:29:58;;;;;;;3.13;1.85;;;9.20;99.90;;;;;;6138793;23;20009;-40
2024/01/04 09:32:23;;;;;;;3.90;2.30;;;9.20;99.90;;;;;;6140221;23;20021;-37
2024/01/04 09:34:50;;;;;;;2.90;2.08;;;9.30;99.90;;;;;;6140273;23;20417;-36
2024/01/04 09:37:16;;;;;;;2.10;1.88;;;9.30;99.90;;;;;;6139790;23;20005;-36
2024/01/04 09:39:41;;;;;;;2.65;2.28;;;9.30;99.90;;;;;;6141155;23;20048;-37
2024/01/04 09:42:09;;;;;;;3.17;2.38;;;9.30;99.90;;;;;;6139732;23;20705;-37
2024/01/04 09:44:35;;;;;;;3.33;2.40;;;9.40;99.90;;;;;;6139805;23;20010;-37
2024/01/04 09:47:10;;;;;;;4.50;2.40;;;9.40;99.90;;;;;;6139423;23;20005;-37
2024/01/04 09:49:41;;;;;;;2.63;2.30;;;9.50;99.90;;;;;;6139435;23;20016;-37
2024/01/04 09:52:09;;;;;;;3.03;2.65;;;9.60;99.90;;;;;;6138518;23;20028;-37
2024/01/04 09:54:39;;;;;;;4.45;3.65;;;9.60;99.90;;;;;;6139865;23;20725;-39
2024/01/04 09:57:08;;;;;;;4.10;2.25;;;9.50;99.90;;;;;;6139961;23;20009;-37
2024/01/04 09:59:34;;;;;;;2.72;2.53;;;9.50;99.90;;;;;;6139166;23;20556;-38
2024/01/04 10:02:03;;;;;;;2.70;2.50;;;9.50;99.90;;;;;;6139531;23;20109;-37
2024/01/04 10:04:31;;;;;;;3.03;2.63;;;9.50;99.90;;;;;;6139549;23;20020;-37
2024/01/04 10:06:59;;;;;;;3.08;2.38;;;9.50;99.90;;;;;;6140060;23;20100;-37
2024/01/04 10:09:30;;;;;;;2.53;2.33;;;9.50;99.90;;;;;;6139841;23;20045;-37
2024/01/04 10:12:07;;;;;;;3.63;2.78;;;9.50;99.90;;;;;;6139224;23;20005;-37
2024/01/04 10:14:34;;;;;;;2.67;2.22;;;9.60;99.90;;;;;;6139585;23;20012;-37
2024/01/04 10:17:00;;;;;;;2.50;2.30;;;9.60;99.90;;;;;;6138708;23;20750;-37
2024/01/04 10:19:27;;;;;;;5.50;3.45;;;9.50;99.90;;;;;;6138197;23;20080;-36
2024/01/04 10:21:52;;;;;;;2.60;2.40;;;9.50;99.90;;;;;;6140043;23;20002;-37
2024/01/04 10:24:23;;;;;;;2.95;2.67;;;9.50;99.90;;;;;;6138859;23;20060;-45
2024/01/04 10:27:00;;;;;;;3.28;2.30;;;9.50;99.90;;;;;;6137316;23;20006;-37
2024/01/04 10:29:27;;;;;;;3.30;3.00;;;9.50;99.90;;;;;;6138872;23;20013;-37
2024/01/04 10:32:04;;;;;;;3.28;2.70;;;9.50;99.90;;;;;;6139323;23;20086;-36
2024/01/04 10:34:34;;;;;;;3.22;2.60;;;9.50;99.90;;;;;;6138063;23;20013;-38
2024/01/04 10:37:12;;;;;;;4.88;2.95;;;9.50;99.90;;;;;;6139780;23;20009;-38
2024/01/04 10:39:39;;;;;;;2.42;2.13;;;9.50;99.90;;;;;;6139802;23;20380;-37
2024/01/04 10:42:05;;;;;;;2.58;2.05;;;9.50;99.90;;;;;;6138722;23;20008;-38
2024/01/04 10:44:34;;;;;;;1.75;1.60;;;9.60;99.90;;;;;;6139741;23;20006;-37
2024/01/04 10:47:02;;;;;;;1.85;1.65;;;9.60;99.90;;;;;;6139301;23;20002;-37
2024/01/04 10:49:29;;;;;;;2.95;1.60;;;9.60;99.90;;;;;;6138854;23;20830;-37
2024/01/04 10:52:00;;;;;;;2.92;1.80;;;9.60;99.90;;;;;;6139416;23;20112;-37
2024/01/04 10:54:33;;;;;;;2.25;1.50;;;9.60;99.90;;;;;;6138815;23;20001;-37
2024/01/04 10:57:00;;;;;;;2.83;1.52;;;9.60;99.90;;;;;;6139195;23;20005;-37
2024/01/04 10:59:30;;;;;;;2.97;1.65;;;9.60;99.90;;;;;;6140020;23;20009;-37
2024/01/04 11:02:00;;;;;;;2.42;1.40;;;9.70;99.90;;;;;;6139297;23;20360;-37
2024/01/04 11:04:27;;;;;;;2.58;1.38;;;9.70;99.90;;;;;;6139305;23;20018;-38
2024/01/04 11:06:53;;;;;;;1.38;1.27;;;9.70;99.90;;;;;;6140123;23;20005;-38
2024/01/04 11:09:20;;;;;;;1.52;1.30;;;9.70;99.90;;;;;;6139153;23;20025;-38
2024/01/04 11:11:53;;;;;;;2.65;1.40;;;9.70;99.90;;;;;;6140566;23;20159;-39
2024/01/04 11:14:20;;;;;;;;;;;9.80;99.90;;;;;;6140121;23;20017;-37
2024/01/04 11:16:45;;;;;;;2.22;1.27;;;9.80;99.90;;;;;;6139845;23;20694;-37
2024/01/04 11:19:23;;;;;;;3.10;1.55;;;9.80;99.90;;;;;;6140420;23;20041;-36
2024/01/04 11:22:29;;;;;;;2.85;1.20;;;9.70;99.90;;;;;;6140418;23;20080;-37
2024/01/04 11:25:22;;;;;;;1.20;1.10;;;9.70;99.90;;;;;;6139745;23;20010;-37
2024/01/04 11:27:48;;;;;;;1.25;1.15;;;9.80;99.90;;;;;;6139889;23;20009;-38
2024/01/04 11:30:14;;;;;;;1.92;1.25;;;9.80;99.90;;;;;;6138127;23;20006;-37
2024/01/04 11:32:44;;;;;;;1.70;1.02;;;9.90;99.90;;;;;;6140749;23;20013;-36
2024/01/04 11:35:13;;;;;;;1.20;1.10;;;9.90;99.90;;;;;;6138981;23;20448;-38
2024/01/04 11:37:38;;;;;;;1.83;1.00;;;10.00;99.90;;;;;;6138464;23;20799;-37
2024/01/04 11:40:07;;;;;;;1.20;1.10;;;10.10;99.90;;;;;;6139248;23;20013;-37
2024/01/04 11:42:45;;;;;;;1.50;1.10;;;10.20;99.90;;;;;;6139008;23;20009;-44
2024/01/04 11:45:16;;;;;;;2.75;1.25;;;10.10;99.90;;;;;;6136426;23;20037;-37
2024/01/04 11:47:45;;;;;;;1.88;1.05;;;10.10;99.90;;;;;;6138800;23;20055;-37
2024/01/04 11:50:29;;;;;;;1.45;1.10;;;10.10;99.90;;;;;;6138223;23;20005;-38
2024/01/04 11:53:09;;;;;;;1.38;1.10;;;10.10;99.90;;;;;;6137716;23;20520;-37
2024/01/04 11:55:38;;;;;;;1.55;1.10;;;10.10;99.90;;;;;;6139867;23;20391;-37
2024/01/04 11:58:24;;;;;;;2.67;1.00;;;10.10;99.90;;;;;;6137666;23;20064;-37
2024/01/04 12:00:52;;;;;;;2.22;1.30;;;10.10;99.90;;;;;;6140178;23;20001;-37
2024/01/04 12:03:22;;;;;;;3.20;1.60;;;10.10;99.90;;;;;;6138841;23;20025;-37
2024/01/04 12:05:54;;;;;;;1.98;1.25;;;10.10;99.90;;;;;;6138288;23;20480;-38
2024/01/04 12:08:31;;;;;;;2.63;1.40;;;10.10;99.90;;;;;;6138763;23;20021;-38
2024/01/04 12:10:58;;;;;;;1.25;1.15;;;10.00;99.90;;;;;;6138298;23;20001;-39
2024/01/04 12:13:24;;;;;;;2.15;1.40;;;10.10;99.90;;;;;;6138153;23;20005;-38
2024/01/04 12:15:53;;;;;;;1.83;1.30;;;10.10;99.90;;;;;;6139790;23;20005;-37
2024/01/04 12:18:22;;;;;;;2.40;1.60;;;10.10;99.90;;;;;;6137986;23;20001;-39
2024/01/04 12:20:49;;;;;;;1.55;1.45;;;10.20;99.90;;;;;;6138800;23;20010;-38
2024/01/04 12:23:15;;;;;;;2.13;1.30;;;10.20;99.90;;;;;;6138331;23;20001;-38
2024/01/04 12:25:41;;;;;;;2.40;1.58;;;10.20;99.90;;;;;;6139120;23;20044;-38
2024/01/04 12:28:08;;;;;;;1.95;1.50;;;10.20;99.90;;;;;;6137801;23;20097;-38
2024/01/04 12:30:37;;;;;;;2.55;1.60;;;10.10;99.90;;;;;;6139057;23;20002;-38
2024/01/04 12:33:03;;;;;;;3.05;1.60;;;10.10;99.90;;;;;;6138503;23;20037;-38
2024/01/04 12:35:29;;;;;;;1.83;1.52;;;10.10;99.90;;;;;;6138191;23;20055;-37
2024/01/04 12:38:05;;;;;;;2.05;1.60;;;10.10;99.90;;;;;;6138451;23;20589;-38
2024/01/04 12:40:48;;;;;;;2.30;1.70;;;10.10;99.90;;;;;;6139211;23;20005;-38
2024/01/04 12:43:14;;;;;;;;;;;10.10;99.90;;;;;;6138574;23;20037;-38
2024/01/04 12:45:40;;;;;;;2.50;1.30;;;10.10;99.90;;;;;;6139078;23;19943;-37
2024/01/04 12:48:07;;;;;;;2.00;1.48;;;10.10;99.90;;;;;;6137417;23;20014;-38
2024/01/04 12:50:37;;;;;;;2.72;1.40;;;10.10;99.90;;;;;;6139033;23;20062;-38
2024/01/04 12:53:06;;;;;;;1.48;1.17;;;10.10;99.90;;;;;;6139141;23;20033;-37